sensor_id;sensor_type;location;lat;lon;timestamp;pressure;altitude;pressure_sealevel;temperature;humidity
62655;BME280;48717;55.556;37.816;2024-01-11T00:00:39;97706.19;;;-8.88;99.48
62655;BME280;48717;55.556;37.816;2024-01-11T00:03:07;97682.13;;;-8.94;99.10
62655;BME280;48717;55.556;37.816;2024-01-11T00:05:34;97687.06;;;-8.77;99.40
62655;BME280;48717;55.556;37.816;2024-01-11T00:08:02;97676.03;;;-8.76;100.00
62655;BME280;48717;55.556;37.816;2024-01-11T00:10:29;97663.94;;;-8.80;99.04
62655;BME280;48717;55.556;37.816;2024-01-11T00:12:57;97665.94;;;-8.73;100.00
62655;BME280;48717;55.556;37.816;2024-01-11T00:15:25;97634.16;;;-8.80;99.86
62655;BME280;48717;55.556;37.816;2024-01-11T00:17:52;97620.69;;;-8.75;100.00
62655;BME280;48717;55.556;37.816;2024-01-11T00:20:19;97632.91;;;-8.68;100.00
62655;BME280;48717;55.556;37.816;2024-01-11T00:22:46;97616.81;;;-8.66;100.00
62655;BME280;48717;55.556;37.816;2024-01-11T00:25:14;97611.09;;;-8.60;100.00
62655;BME280;48717;55.556;37.816;2024-01-11T00:27:44;97609.44;;;-8.58;100.00
62655;BME280;48717;55.556;37.816;2024-01-11T00:30:11;97584.53;;;-8.63;99.39
62655;BME280;48717;55.556;37.816;2024-01-11T00:32:38;97583.28;;;-8.50;99.15
62655;BME280;48717;55.556;37.816;2024-01-11T00:35:06;97611.41;;;-8.50;99.32
62655;BME280;48717;55.556;37.816;2024-01-11T00:37:33;97566.38;;;-8.47;100.00
62655;BME280;48717;55.556;37.816;2024-01-11T00:40:01;97554.22;;;-8.54;100.00
62655;BME280;48717;55.556;37.816;2024-01-11T00:42:29;97555.41;;;-8.44;100.00
62655;BME280;48717;55.556;37.816;2024-01-11T00:44:56;97547.78;;;-8.43;100.00
62655;BME280;48717;55.556;37.816;2024-01-11T00:47:23;97508.63;;;-8.42;100.00
62655;BME280;48717;55.556;37.816;2024-01-11T00:49:52;97519.03;;;-8.37;100.00
62655;BME280;48717;55.556;37.816;2024-01-11T00:52:19;97478.50;;;-8.50;100.00
62655;BME280;48717;55.556;37.816;2024-01-11T00:54:46;97483.00;;;-8.43;100.00
62655;BME280;48717;55.556;37.816;2024-01-11T00:57:13;97464.59;;;-8.34;100.00
62655;BME280;48717;55.556;37.816;2024-01-11T00:59:40;97472.97;;;-8.39;100.00
62655;BME280;48717;55.556;37.816;2024-01-11T01:02:08;97459.69;;;-8.28;100.00
62655;BME280;48717;55.556;37.816;2024-01-11T01:04:38;97442.81;;;-8.23;100.00
62655;BME280;48717;55.556;37.816;2024-01-11T01:07:06;97445.75;;;-8.12;100.00
62655;BME280;48717;55.556;37.816;2024-01-11T01:09:33;97439.78;;;-8.13;100.00
62655;BME280;48717;55.556;37.816;2024-01-11T01:12:00;97421.50;;;-8.23;100.00
62655;BME280;48717;55.556;37.816;2024-01-11T01:14:28;97438.50;;;-8.00;100.00
62655;BME280;48717;55.556;37.816;2024-01-11T01:16:56;97416.88;;;-8.09;100.00
62655;BME280;48717;55.556;37.816;2024-01-11T01:19:23;97389.66;;;-8.07;100.00
62655;BME280;48717;55.556;37.816;2024-01-11T01:21:50;97400.28;;;-7.95;100.00
62655;BME280;48717;55.556;37.816;2024-01-11T01:24:17;97372.03;;;-7.98;100.00
62655;BME280;48717;55.556;37.816;2024-01-11T01:26:45;97399.09;;;-7.79;100.00
62655;BME280;48717;55.556;37.816;2024-01-11T01:29:12;97389.75;;;-7.78;100.00
62655;BME280;48717;55.556;37.816;2024-01-11T01:31:39;97382.25;;;-7.72;100.00
62655;BME280;48717;55.556;37.816;2024-01-11T01:34:07;97378.44;;;-7.57;100.00
62655;BME280;48717;55.556;37.816;2024-01-11T01:36:34;97365.75;;;-7.54;100.00
62655;BME280;48717;55.556;37.816;2024-01-11T01:39:02;97360.84;;;-7.47;100.00
62655;BME280;48717;55.556;37.816;2024-01-11T01:41:30;97362.00;;;-7.37;100.00
62655;BME280;48717;55.556;37.816;2024-01-11T01:43:57;97327.13;;;-7.33;100.00
62655;BME280;48717;55.556;37.816;2024-01-11T01:46:27;97322.81;;;-7.34;100.00
62655;BME280;48717;55.556;37.816;2024-01-11T01:48:56;97331.00;;;-7.17;100.00
62655;BME280;48717;55.556;37.816;2024-01-11T01:51:25;97317.59;;;-7.08;100.00
62655;BME280;48717;55.556;37.816;2024-01-11T01:53:53;97314.28;;;-7.04;100.00
62655;BME280;48717;55.556;37.816;2024-01-11T01:56:21;97290.50;;;-7.00;100.00
62655;BME280;48717;55.556;37.816;2024-01-11T01:58:50;97278.69;;;-6.95;100.00
62655;BME280;48717;55.556;37.816;2024-01-11T02:01:20;97271.03;;;-6.93;100.00
62655;BME280;48717;55.556;37.816;2024-01-11T02:03:50;97260.19;;;-6.83;100.00
62655;BME280;48717;55.556;37.816;2024-01-11T02:06:18;97262.97;;;-6.75;100.00
62655;BME280;48717;55.556;37.816;2024-01-11T02:08:49;97257.88;;;-6.73;100.00
62655;BME280;48717;55.556;37.816;2024-01-11T02:11:20;97240.91;;;-6.68;100.00
62655;BME280;48717;55.556;37.816;2024-01-11T02:13:47;97245.34;;;-6.62;100.00
62655;BME280;48717;55.556;37.816;2024-01-11T02:16:15;97233.50;;;-6.57;100.00
62655;BME280;48717;55.556;37.816;2024-01-11T02:18:43;97231.91;;;-6.53;100.00
62655;BME280;48717;55.556;37.816;2024-01-11T02:21:11;97222.69;;;-6.45;100.00
62655;BME280;48717;55.556;37.816;2024-01-11T02:23:44;97216.03;;;-6.37;100.00
62655;BME280;48717;55.556;37.816;2024-01-11T02:26:14;97203.22;;;-6.37;100.00
62655;BME280;48717;55.556;37.816;2024-01-11T02:28:45;97181.88;;;-6.36;100.00
62655;BME280;48717;55.556;37.816;2024-01-11T02:31:13;97193.44;;;-6.17;100.00
62655;BME280;48717;55.556;37.816;2024-01-11T02:33:41;97191.91;;;-6.08;100.00
62655;BME280;48717;55.556;37.816;2024-01-11T02:36:08;97169.56;;;-6.14;100.00
62655;BME280;48717;55.556;37.816;2024-01-11T02:38:36;97185.19;;;-6.03;100.00
62655;BME280;48717;55.556;37.816;2024-01-11T02:41:05;97172.50;;;-5.95;100.00
62655;BME280;48717;55.556;37.816;2024-01-11T02:43:33;97152.03;;;-5.92;100.00
62655;BME280;48717;55.556;37.816;2024-01-11T02:46:03;97166.09;;;-5.74;100.00
62655;BME280;48717;55.556;37.816;2024-01-11T02:48:30;97138.47;;;-5.85;100.00
62655;BME280;48717;55.556;37.816;2024-01-11T02:50:58;97140.34;;;-5.78;100.00
62655;BME280;48717;55.556;37.816;2024-01-11T02:53:26;97129.94;;;-5.84;100.00
62655;BME280;48717;55.556;37.816;2024-01-11T02:55:54;97101.50;;;-5.95;100.00
62655;BME280;48717;55.556;37.816;2024-01-11T02:58:21;97131.09;;;-5.69;100.00
62655;BME280;48717;55.556;37.816;2024-01-11T03:00:48;97122.53;;;-5.70;100.00
62655;BME280;48717;55.556;37.816;2024-01-11T03:03:16;97122.59;;;-5.67;100.00
62655;BME280;48717;55.556;37.816;2024-01-11T03:05:43;97106.28;;;-5.69;100.00
62655;BME280;48717;55.556;37.816;2024-01-11T03:08:10;97104.84;;;-5.56;100.00
62655;BME280;48717;55.556;37.816;2024-01-11T03:10:38;97083.22;;;-5.67;100.00
62655;BME280;48717;55.556;37.816;2024-01-11T03:13:07;97068.66;;;-5.68;100.00
62655;BME280;48717;55.556;37.816;2024-01-11T03:15:34;97087.06;;;-5.45;100.00
62655;BME280;48717;55.556;37.816;2024-01-11T03:18:01;97074.22;;;-5.45;100.00
62655;BME280;48717;55.556;37.816;2024-01-11T03:20:29;97058.84;;;-5.43;100.00
62655;BME280;48717;55.556;37.816;2024-01-11T03:22:57;97083.13;;;-5.26;100.00
62655;BME280;48717;55.556;37.816;2024-01-11T03:25:24;97079.75;;;-5.21;100.00
62655;BME280;48717;55.556;37.816;2024-01-11T03:27:51;97069.66;;;-5.12;100.00
62655;BME280;48717;55.556;37.816;2024-01-11T03:30:18;97057.69;;;-5.10;100.00
62655;BME280;48717;55.556;37.816;2024-01-11T03:32:46;97054.38;;;-5.03;100.00
62655;BME280;48717;55.556;37.816;2024-01-11T03:35:13;97031.91;;;-5.13;100.00
62655;BME280;48717;55.556;37.816;2024-01-11T03:37:41;97019.09;;;-5.12;100.00
62655;BME280;48717;55.556;37.816;2024-01-11T03:40:08;97049.53;;;-4.84;100.00
62655;BME280;48717;55.556;37.816;2024-01-11T03:42:36;97042.75;;;-4.79;100.00
62655;BME280;48717;55.556;37.816;2024-01-11T03:45:03;97035.13;;;-4.74;100.00
62655;BME280;48717;55.556;37.816;2024-01-11T03:47:31;97020.63;;;-4.67;100.00
62655;BME280;48717;55.556;37.816;2024-01-11T03:49:59;96991.38;;;-4.76;100.00
62655;BME280;48717;55.556;37.816;2024-01-11T03:52:26;97011.34;;;-4.56;100.00
62655;BME280;48717;55.556;37.816;2024-01-11T03:54:53;96983.09;;;-4.53;100.00
62655;BME280;48717;55.556;37.816;2024-01-11T03:57:20;97009.00;;;-4.37;100.00
62655;BME280;48717;55.556;37.816;2024-01-11T03:59:48;96987.63;;;-4.35;100.00
62655;BME280;48717;55.556;37.816;2024-01-11T04:02:15;96992.06;;;-4.23;100.00
62655;BME280;48717;55.556;37.816;2024-01-11T04:04:43;96990.50;;;-4.08;100.00
62655;BME280;48717;55.556;37.816;2024-01-11T04:07:10;96991.47;;;-3.98;100.00
62655;BME280;48717;55.556;37.816;2024-01-11T04:09:38;96980.41;;;-3.92;100.00
62655;BME280;48717;55.556;37.816;2024-01-11T04:12:06;96970.09;;;-3.92;100.00
62655;BME280;48717;55.556;37.816;2024-01-11T04:14:39;96974.59;;;-3.71;100.00
62655;BME280;48717;55.556;37.816;2024-01-11T04:17:07;96975.59;;;-3.55;100.00
62655;BME280;48717;55.556;37.816;2024-01-11T04:19:34;96941.13;;;-3.67;100.00
62655;BME280;48717;55.556;37.816;2024-01-11T04:22:01;96957.69;;;-3.39;100.00
62655;BME280;48717;55.556;37.816;2024-01-11T04:24:28;96956.09;;;-3.22;100.00
62655;BME280;48717;55.556;37.816;2024-01-11T04:26:56;96948.53;;;-3.03;100.00
62655;BME280;48717;55.556;37.816;2024-01-11T04:29:23;96950.28;;;-2.99;100.00
62655;BME280;48717;55.556;37.816;2024-01-11T04:31:51;96919.34;;;-2.99;100.00
62655;BME280;48717;55.556;37.816;2024-01-11T04:34:18;96947.00;;;-2.67;100.00
62655;BME280;48717;55.556;37.816;2024-01-11T04:36:45;96938.41;;;-2.66;100.00
62655;BME280;48717;55.556;37.816;2024-01-11T04:39:13;96914.38;;;-2.58;100.00
62655;BME280;48717;55.556;37.816;2024-01-11T04:41:40;96936.84;;;-2.36;100.00
62655;BME280;48717;55.556;37.816;2024-01-11T04:44:08;96916.19;;;-2.37;100.00
62655;BME280;48717;55.556;37.816;2024-01-11T04:46:35;96933.47;;;-2.19;100.00
62655;BME280;48717;55.556;37.816;2024-01-11T04:49:02;96911.06;;;-2.20;100.00
62655;BME280;48717;55.556;37.816;2024-01-11T04:51:30;96911.97;;;-2.08;100.00
62655;BME280;48717;55.556;37.816;2024-01-11T04:53:57;96912.84;;;-1.92;100.00
62655;BME280;48717;55.556;37.816;2024-01-11T04:56:24;96901.66;;;-1.98;100.00
62655;BME280;48717;55.556;37.816;2024-01-11T04:58:52;96908.56;;;-1.87;100.00
62655;BME280;48717;55.556;37.816;2024-01-11T05:01:19;96894.78;;;-1.80;100.00
62655;BME280;48717;55.556;37.816;2024-01-11T05:03:48;96905.13;;;-1.72;100.00
62655;BME280;48717;55.556;37.816;2024-01-11T05:06:20;96913.75;;;-1.68;100.00
62655;BME280;48717;55.556;37.816;2024-01-11T05:08:52;96893.94;;;-1.65;100.00
62655;BME280;48717;55.556;37.816;2024-01-11T05:11:21;96901.72;;;-1.52;100.00
62655;BME280;48717;55.556;37.816;2024-01-11T05:13:49;96877.59;;;-1.59;100.00
62655;BME280;48717;55.556;37.816;2024-01-11T05:16:20;96890.47;;;-1.47;100.00
62655;BME280;48717;55.556;37.816;2024-01-11T05:18:49;96870.66;;;-1.49;100.00
62655;BME280;48717;55.556;37.816;2024-01-11T05:21:17;96882.72;;;-1.45;100.00
62655;BME280;48717;55.556;37.816;2024-01-11T05:23:45;96875.00;;;-1.48;100.00
62655;BME280;48717;55.556;37.816;2024-01-11T05:26:15;96874.13;;;-1.50;100.00
62655;BME280;48717;55.556;37.816;2024-01-11T05:28:43;96884.47;;;-1.47;100.00
62655;BME280;48717;55.556;37.816;2024-01-11T05:31:12;96882.72;;;-1.45;100.00
62655;BME280;48717;55.556;37.816;2024-01-11T05:33:39;96874.13;;;-1.41;100.00
62655;BME280;48717;55.556;37.816;2024-01-11T05:36:07;96843.09;;;-1.53;100.00
62655;BME280;48717;55.556;37.816;2024-01-11T05:38:35;96868.09;;;-1.37;100.00
62655;BME280;48717;55.556;37.816;2024-01-11T05:41:06;96772.53;;;-1.84;100.00
62655;BME280;48717;55.556;37.816;2024-01-11T05:43:36;96864.66;;;-1.26;100.00
62655;BME280;48717;55.556;37.816;2024-01-11T05:46:04;96866.34;;;-1.22;100.00
62655;BME280;48717;55.556;37.816;2024-01-11T05:48:31;96861.16;;;-1.21;100.00
62655;BME280;48717;55.556;37.816;2024-01-11T05:51:00;96867.19;;;-1.08;100.00
62655;BME280;48717;55.556;37.816;2024-01-11T05:53:27;96862.00;;;-1.11;100.00
62655;BME280;48717;55.556;37.816;2024-01-11T05:55:55;96862.88;;;-1.02;100.00
62655;BME280;48717;55.556;37.816;2024-01-11T05:58:22;96831.84;;;-1.12;100.00
62655;BME280;48717;55.556;37.816;2024-01-11T06:00:49;96848.19;;;-1.00;100.00
62655;BME280;48717;55.556;37.816;2024-01-11T06:03:17;96841.28;;;-1.05;100.00
62655;BME280;48717;55.556;37.816;2024-01-11T06:05:44;96847.31;;;-0.96;100.00
62655;BME280;48717;55.556;37.816;2024-01-11T06:08:11;96842.13;;;-0.93;100.00
62655;BME280;48717;55.556;37.816;2024-01-11T06:10:39;96839.53;;;-0.87;100.00
62655;BME280;48717;55.556;37.816;2024-01-11T06:13:06;96837.81;;;-0.83;100.00
62655;BME280;48717;55.556;37.816;2024-01-11T06:15:35;96845.56;;;-0.82;100.00
62655;BME280;48717;55.556;37.816;2024-01-11T06:18:02;96836.94;;;-0.87;100.00
62655;BME280;48717;55.556;37.816;2024-01-11T06:26:14;96839.47;;;-0.74;100.00
62655;BME280;48717;55.556;37.816;2024-01-11T06:28:41;96836.91;;;-0.74;100.00
62655;BME280;48717;55.556;37.816;2024-01-11T06:31:11;96822.25;;;-0.75;100.00
62655;BME280;48717;55.556;37.816;2024-01-11T06:33:39;96822.25;;;-0.74;100.00
62655;BME280;48717;55.556;37.816;2024-01-11T06:36:06;96830.00;;;-0.75;100.00
62655;BME280;48717;55.556;37.816;2024-01-11T06:38:37;96828.28;;;-0.76;100.00
62655;BME280;48717;55.556;37.816;2024-01-11T06:41:05;96828.25;;;-0.73;100.00
62655;BME280;48717;55.556;37.816;2024-01-11T06:43:32;96811.03;;;-0.76;100.00
62655;BME280;48717;55.556;37.816;2024-01-11T06:46:06;96824.84;;;-0.79;100.00
62655;BME280;48717;55.556;37.816;2024-01-11T06:48:33;96811.06;;;-0.81;100.00
62655;BME280;48717;55.556;37.816;2024-01-11T06:51:02;96802.44;;;-0.83;100.00
62655;BME280;48717;55.556;37.816;2024-01-11T06:53:30;96804.19;;;-0.88;100.00
62655;BME280;48717;55.556;37.816;2024-01-11T06:55:57;96802.41;;;-0.80;100.00
62655;BME280;48717;55.556;37.816;2024-01-11T06:58:25;96786.94;;;-0.86;100.00
62655;BME280;48717;55.556;37.816;2024-01-11T07:00:52;96793.78;;;-0.79;100.00
62655;BME280;48717;55.556;37.816;2024-01-11T07:03:21;96795.53;;;-0.81;100.00
62655;BME280;48717;55.556;37.816;2024-01-11T07:05:48;96802.38;;;-0.73;100.00
62655;BME280;48717;55.556;37.816;2024-01-11T07:08:16;96796.38;;;-0.71;100.00
62655;BME280;48717;55.556;37.816;2024-01-11T07:10:43;96797.19;;;-0.70;100.00
62655;BME280;48717;55.556;37.816;2024-01-11T07:13:10;96802.38;;;-0.67;100.00
62655;BME280;48717;55.556;37.816;2024-01-11T07:15:38;96798.03;;;-0.57;100.00
62655;BME280;48717;55.556;37.816;2024-01-11T07:18:06;96794.56;;;-0.58;100.00
62655;BME280;48717;55.556;37.816;2024-01-11T07:20:33;96795.44;;;-0.59;100.00
62655;BME280;48717;55.556;37.816;2024-01-11T07:23:01;96798.81;;;-0.47;100.00
62655;BME280;48717;55.556;37.816;2024-01-11T07:25:31;96766.09;;;-0.55;100.00
62655;BME280;48717;55.556;37.816;2024-01-11T07:27:59;96784.16;;;-0.47;100.00
62655;BME280;48717;55.556;37.816;2024-01-11T07:30:26;96773.78;;;-0.45;100.00
62655;BME280;48717;55.556;37.816;2024-01-11T07:32:53;96776.38;;;-0.45;99.40
62655;BME280;48717;55.556;37.816;2024-01-11T07:35:21;96769.50;;;-0.46;99.40
62655;BME280;48717;55.556;37.816;2024-01-11T07:37:49;96769.38;;;-0.34;99.45
62655;BME280;48717;55.556;37.816;2024-01-11T07:40:16;96764.19;;;-0.34;98.83
62655;BME280;48717;55.556;37.816;2024-01-11T07:42:45;96752.13;;;-0.35;98.93
62655;BME280;48717;55.556;37.816;2024-01-11T07:45:13;96759.91;;;-0.36;98.44
62655;BME280;48717;55.556;37.816;2024-01-11T07:47:40;96763.28;;;-0.25;98.59
62655;BME280;48717;55.556;37.816;2024-01-11T07:50:08;96768.53;;;-0.36;98.84
62655;BME280;48717;55.556;37.816;2024-01-11T07:52:39;96760.78;;;-0.36;98.87
62655;BME280;48717;55.556;37.816;2024-01-11T07:55:09;96754.78;;;-0.46;99.79
62655;BME280;48717;55.556;37.816;2024-01-11T07:57:39;96749.63;;;-0.47;99.39
62655;BME280;48717;55.556;37.816;2024-01-11T08:00:08;96745.25;;;-0.37;98.87
62655;BME280;48717;55.556;37.816;2024-01-11T08:02:39;96728.09;;;-0.53;97.69
62655;BME280;48717;55.556;37.816;2024-01-11T08:05:07;96738.31;;;-0.34;98.65
62655;BME280;48717;55.556;37.816;2024-01-11T08:07:36;96721.94;;;-0.34;97.30
62655;BME280;48717;55.556;37.816;2024-01-11T08:10:03;96733.09;;;-0.26;96.77
62655;BME280;48717;55.556;37.816;2024-01-11T08:12:31;96731.31;;;-0.19;95.85
62655;BME280;48717;55.556;37.816;2024-01-11T08:14:58;96716.59;;;-0.12;94.57
62655;BME280;48717;55.556;37.816;2024-01-11T08:17:26;96711.34;;;-0.05;93.89
62655;BME280;48717;55.556;37.816;2024-01-11T08:19:53;96716.38;;;0.11;94.30
62655;BME280;48717;55.556;37.816;2024-01-11T08:22:23;96710.44;;;-0.01;92.18
62655;BME280;48717;55.556;37.816;2024-01-11T08:24:54;96705.28;;;-0.04;92.69
62655;BME280;48717;55.556;37.816;2024-01-11T08:27:21;96707.13;;;-0.17;93.15
62655;BME280;48717;55.556;37.816;2024-01-11T08:29:50;96707.16;;;-0.21;93.49
62655;BME280;48717;55.556;37.816;2024-01-11T08:32:17;96694.25;;;-0.28;95.15
62655;BME280;48717;55.556;37.816;2024-01-11T08:34:57;96703.72;;;-0.23;95.68
62655;BME280;48717;55.556;37.816;2024-01-11T08:37:26;96704.53;;;-0.17;95.80
62655;BME280;48717;55.556;37.816;2024-01-11T08:39:54;96697.59;;;-0.13;94.91
62655;BME280;48717;55.556;37.816;2024-01-11T08:42:21;96705.47;;;-0.25;96.18
62655;BME280;48717;55.556;37.816;2024-01-11T08:44:48;96696.84;;;-0.28;96.50
62655;BME280;48717;55.556;37.816;2024-01-11T08:47:16;96689.03;;;-0.23;96.84
62655;BME280;48717;55.556;37.816;2024-01-11T08:49:43;96684.72;;;-0.19;96.48
62655;BME280;48717;55.556;37.816;2024-01-11T08:52:11;96690.72;;;-0.19;97.08
62655;BME280;48717;55.556;37.816;2024-01-11T08:54:38;96681.25;;;-0.21;98.38
62655;BME280;48717;55.556;37.816;2024-01-11T08:57:06;96665.88;;;-0.40;97.95
62655;BME280;48717;55.556;37.816;2024-01-11T08:59:33;96674.47;;;-0.38;99.10
62655;BME280;48717;55.556;37.816;2024-01-11T09:02:21;96679.72;;;-0.44;99.15
62655;BME280;48717;55.556;37.816;2024-01-11T09:04:49;96671.13;;;-0.49;100.00
62655;BME280;48717;55.556;37.816;2024-01-11T09:07:17;96665.06;;;-0.47;100.00
62655;BME280;48717;55.556;37.816;2024-01-11T09:09:44;96656.50;;;-0.55;99.91
62655;BME280;48717;55.556;37.816;2024-01-11T09:12:22;96620.34;;;-0.63;100.00
62655;BME280;48717;55.556;37.816;2024-01-11T09:14:50;96648.75;;;-0.57;100.00
62655;BME280;48717;55.556;37.816;2024-01-11T09:17:17;96624.72;;;-0.71;100.00
62655;BME280;48717;55.556;37.816;2024-01-11T09:19:44;96610.13;;;-0.82;100.00
62655;BME280;48717;55.556;37.816;2024-01-11T09:22:12;96654.00;;;-0.66;100.00
62655;BME280;48717;55.556;37.816;2024-01-11T09:24:39;96708.34;;;-0.69;100.00
62655;BME280;48717;55.556;37.816;2024-01-11T09:27:06;96713.69;;;-0.96;100.00
62655;BME280;48717;55.556;37.816;2024-01-11T09:29:34;96712.16;;;-1.45;100.00
62655;BME280;48717;55.556;37.816;2024-01-11T09:32:01;96725.97;;;-1.60;100.00
62655;BME280;48717;55.556;37.816;2024-01-11T09:34:29;96726.00;;;-1.69;100.00
62655;BME280;48717;55.556;37.816;2024-01-11T09:36:58;96721.75;;;-1.97;100.00
62655;BME280;48717;55.556;37.816;2024-01-11T09:39:26;96751.00;;;-1.89;100.00
62655;BME280;48717;55.556;37.816;2024-01-11T09:42:07;96760.47;;;-1.81;100.00
62655;BME280;48717;55.556;37.816;2024-01-11T09:44:38;96759.63;;;-1.90;100.00
62655;BME280;48717;55.556;37.816;2024-01-11T09:47:08;96747.56;;;-2.00;100.00
62655;BME280;48717;55.556;37.816;2024-01-11T09:49:43;96762.19;;;-2.12;100.00
62655;BME280;48717;55.556;37.816;2024-01-11T09:52:12;96760.47;;;-2.27;100.00
62655;BME280;48717;55.556;37.816;2024-01-11T09:54:42;96765.63;;;-2.42;99.17
62655;BME280;48717;55.556;37.816;2024-01-11T09:57:10;96758.72;;;-2.48;99.59
62655;BME280;48717;55.556;37.816;2024-01-11T09:59:37;96761.34;;;-2.42;99.71
62655;BME280;48717;55.556;37.816;2024-01-11T10:02:07;96768.19;;;-2.38;98.90
62655;BME280;48717;55.556;37.816;2024-01-11T10:04:37;96768.22;;;-2.34;96.98
62655;BME280;48717;55.556;37.816;2024-01-11T10:07:05;96780.25;;;-2.33;94.89
62655;BME280;48717;55.556;37.816;2024-01-11T10:09:34;96775.09;;;-2.33;93.99
62655;BME280;48717;55.556;37.816;2024-01-11T10:12:02;96797.44;;;-2.39;94.98
62655;BME280;48717;55.556;37.816;2024-01-11T10:14:30;96807.75;;;-2.48;96.22
62655;BME280;48717;55.556;37.816;2024-01-11T10:16:58;96811.16;;;-2.68;96.97
62655;BME280;48717;55.556;37.816;2024-01-11T10:19:26;96817.09;;;-2.89;98.12
62655;BME280;48717;55.556;37.816;2024-01-11T10:21:53;96827.34;;;-3.00;97.31
62655;BME280;48717;55.556;37.816;2024-01-11T10:24:20;96836.84;;;-2.99;96.34
62655;BME280;48717;55.556;37.816;2024-01-11T10:26:49;96836.78;;;-3.05;93.91
62655;BME280;48717;55.556;37.816;2024-01-11T10:29:16;96835.91;;;-3.10;92.37
62655;BME280;48717;55.556;37.816;2024-01-11T10:31:45;96855.69;;;-3.06;91.67
62655;BME280;48717;55.556;37.816;2024-01-11T10:34:13;96859.13;;;-3.03;92.73
62655;BME280;48717;55.556;37.816;2024-01-11T10:36:42;96855.72;;;-2.97;91.69
62655;BME280;48717;55.556;37.816;2024-01-11T10:39:09;96869.56;;;-2.85;90.83
62655;BME280;48717;55.556;37.816;2024-01-11T10:41:40;96862.72;;;-2.79;90.10
62655;BME280;48717;55.556;37.816;2024-01-11T10:44:21;96863.53;;;-2.83;88.53
62655;BME280;48717;55.556;37.816;2024-01-11T10:46:49;96879.00;;;-2.86;85.34
62655;BME280;48717;55.556;37.816;2024-01-11T10:49:18;96872.84;;;-3.07;83.14
62655;BME280;48717;55.556;37.816;2024-01-11T10:51:53;96889.22;;;-3.05;83.47
62655;BME280;48717;55.556;37.816;2024-01-11T10:54:23;96885.69;;;-3.19;80.67
62655;BME280;48717;55.556;37.816;2024-01-11T10:56:51;96902.00;;;-3.19;78.26
62655;BME280;48717;55.556;37.816;2024-01-11T10:59:20;96901.91;;;-3.31;77.49
62655;BME280;48717;55.556;37.816;2024-01-11T11:01:53;96896.72;;;-3.37;77.97
62655;BME280;48717;55.556;37.816;2024-01-11T11:04:25;96911.22;;;-3.54;77.23
62655;BME280;48717;55.556;37.816;2024-01-11T11:06:55;96929.19;;;-3.58;77.22
62655;BME280;48717;55.556;37.816;2024-01-11T11:09:26;96939.31;;;-3.80;74.15
62655;BME280;48717;55.556;37.816;2024-01-11T11:11:58;96943.44;;;-3.99;73.46
62655;BME280;48717;55.556;37.816;2024-01-11T11:14:25;96945.91;;;-4.07;73.95
62655;BME280;48717;55.556;37.816;2024-01-11T11:16:52;96959.56;;;-4.11;72.14
62655;BME280;48717;55.556;37.816;2024-01-11T11:19:20;96987.88;;;-4.14;70.65
62655;BME280;48717;55.556;37.816;2024-01-11T11:21:48;96974.06;;;-4.23;69.29
62655;BME280;48717;55.556;37.816;2024-01-11T11:24:17;96990.25;;;-4.30;68.99
62655;BME280;48717;55.556;37.816;2024-01-11T11:26:45;96979.09;;;-4.30;69.02
62655;BME280;48717;55.556;37.816;2024-01-11T11:29:15;97000.47;;;-4.36;68.99
62655;BME280;48717;55.556;37.816;2024-01-11T11:31:44;96986.53;;;-4.51;69.78
62655;BME280;48717;55.556;37.816;2024-01-11T11:34:20;97009.03;;;-4.39;70.45
62655;BME280;48717;55.556;37.816;2024-01-11T11:37:06;97009.75;;;-4.48;71.27
62655;BME280;48717;55.556;37.816;2024-01-11T11:39:33;97005.34;;;-4.58;72.55
62655;BME280;48717;55.556;37.816;2024-01-11T11:42:06;97027.56;;;-4.63;71.96
62655;BME280;48717;55.556;37.816;2024-01-11T11:44:48;97043.38;;;-4.94;72.60
62655;BME280;48717;55.556;37.816;2024-01-11T11:47:20;97054.19;;;-5.15;73.11
62655;BME280;48717;55.556;37.816;2024-01-11T11:52:33;97084.34;;;-5.53;72.55
62655;BME280;48717;55.556;37.816;2024-01-11T11:55:04;97073.72;;;-5.71;71.63
62655;BME280;48717;55.556;37.816;2024-01-11T11:57:33;97079.22;;;-5.96;72.16
62655;BME280;48717;55.556;37.816;2024-01-11T12:00:00;97102.19;;;-6.05;71.76
62655;BME280;48717;55.556;37.816;2024-01-11T12:02:38;97123.19;;;-6.22;71.07
62655;BME280;48717;55.556;37.816;2024-01-11T12:05:06;97142.59;;;-6.35;71.31
62655;BME280;48717;55.556;37.816;2024-01-11T12:07:34;97134.56;;;-6.49;71.46
62655;BME280;48717;55.556;37.816;2024-01-11T12:10:02;97149.56;;;-6.66;70.45
62655;BME280;48717;55.556;37.816;2024-01-11T12:12:30;97168.88;;;-6.80;71.51
62655;BME280;48717;55.556;37.816;2024-01-11T12:14:58;97166.81;;;-6.94;71.01
62655;BME280;48717;55.556;37.816;2024-01-11T12:17:27;97152.88;;;-7.05;70.45
62655;BME280;48717;55.556;37.816;2024-01-11T12:19:55;97169.72;;;-7.14;70.96
62655;BME280;48717;55.556;37.816;2024-01-11T12:22:43;97172.88;;;-7.24;70.04
62655;BME280;48717;55.556;37.816;2024-01-11T12:25:10;97189.53;;;-7.39;69.73
62655;BME280;48717;55.556;37.816;2024-01-11T12:27:39;97185.56;;;-7.60;70.36
62655;BME280;48717;55.556;37.816;2024-01-11T12:30:07;97180.00;;;-7.75;70.56
62655;BME280;48717;55.556;37.816;2024-01-11T12:32:38;97198.84;;;-7.73;71.45
62655;BME280;48717;55.556;37.816;2024-01-11T12:35:07;97175.78;;;-7.75;70.59
62655;BME280;48717;55.556;37.816;2024-01-11T12:37:35;97198.75;;;-7.76;71.10
62655;BME280;48717;55.556;37.816;2024-01-11T12:40:03;97188.41;;;-7.79;70.50
62655;BME280;48717;55.556;37.816;2024-01-11T12:42:34;97197.75;;;-7.81;71.32
62655;BME280;48717;55.556;37.816;2024-01-11T12:45:02;97219.06;;;-7.82;71.35
62655;BME280;48717;55.556;37.816;2024-01-11T12:47:30;97216.94;;;-7.96;71.88
62655;BME280;48717;55.556;37.816;2024-01-11T12:49:58;97216.75;;;-8.02;70.77
62655;BME280;48717;55.556;37.816;2024-01-11T12:52:29;97232.19;;;-7.99;71.63
62655;BME280;48717;55.556;37.816;2024-01-11T12:54:57;97229.34;;;-8.08;71.57
62655;BME280;48717;55.556;37.816;2024-01-11T12:57:25;97227.69;;;-8.06;72.33